HAZ3763 ZGGG-ZHCC
Flight info
| Callsign | HAZ3763 |
|---|---|
| Flight time | N/A |
| Altitude | 37100 |
| Route | MIKIP9 MIKIP A461 BUBDA/K0895S1100 W56 REBIS/K0893S1130 W56 IGMIG IGM10U |
| Aircraft | B77W/H-SDE1E2E3FGHIJ2J3J4J5M1RWXY/LB1D1 |
Departure
| Time | 2026-05-06 00:42 |
|---|---|
| Airport | Guangzhou Baiyun International Airport (ZGGG) |
Arrival
| Time | N/A |
|---|---|
| Airport | Zhengzhou Xinzheng International Airport (ZHCC) |
| Time | Latitude | Longitude | Altitude | Speed | Heading |
|---|---|---|---|---|---|
| 2026-05-06 00:27 | 23.38301 | 113.30185 | 57 ft | 0 kts | 322° |
| 2026-05-06 00:35 | 23.38300 | 113.30187 | 57 ft | 1 kts | 323° |
| 2026-05-06 00:35 | 23.38287 | 113.30196 | 57 ft | 2 kts | 326° |
| 2026-05-06 00:36 | 23.38275 | 113.30205 | 57 ft | 1 kts | 323° |
| 2026-05-06 00:36 | 23.38268 | 113.30211 | 57 ft | 1 kts | 322° |
| 2026-05-06 00:36 | 23.38258 | 113.30223 | 57 ft | 2 kts | 283° |
| 2026-05-06 00:36 | 23.38259 | 113.30239 | 57 ft | 2 kts | 246° |
| 2026-05-06 00:37 | 23.38267 | 113.30251 | 57 ft | 2 kts | 211° |
| 2026-05-06 00:37 | 23.38275 | 113.30255 | 57 ft | 1 kts | 193° |
| 2026-05-06 00:37 | 23.38278 | 113.30256 | 57 ft | 0 kts | 194° |
| 2026-05-06 00:39 | 23.38266 | 113.30253 | 57 ft | 5 kts | 194° |
| 2026-05-06 00:39 | 23.38212 | 113.30238 | 57 ft | 11 kts | 194° |
| 2026-05-06 00:39 | 23.38134 | 113.30257 | 57 ft | 11 kts | 122° |
| 2026-05-06 00:39 | 23.38111 | 113.30341 | 57 ft | 11 kts | 104° |
| 2026-05-06 00:40 | 23.38084 | 113.30430 | 57 ft | 12 kts | 127° |
| 2026-05-06 00:40 | 23.37970 | 113.30439 | 57 ft | 22 kts | 194° |
| 2026-05-06 00:40 | 23.37807 | 113.30396 | 57 ft | 23 kts | 193° |
| 2026-05-06 00:40 | 23.37678 | 113.30363 | 57 ft | 15 kts | 190° |
| 2026-05-06 00:41 | 23.37603 | 113.30412 | 57 ft | 13 kts | 103° |
| 2026-05-06 00:41 | 23.37589 | 113.30509 | 57 ft | 12 kts | 78° |
| 2026-05-06 00:41 | 23.37651 | 113.30557 | 57 ft | 11 kts | 14° |
| 2026-05-06 00:41 | 23.37769 | 113.30588 | 57 ft | 35 kts | 13° |
| 2026-05-06 00:42 | 23.38248 | 113.30719 | 57 ft | 105 kts | 14° |
| 2026-05-06 00:42 | 23.39160 | 113.30966 | 58 ft | 163 kts | 13° |
| 2026-05-06 00:42 | 23.40366 | 113.31272 | 375 ft | 185 kts | 16° |
| 2026-05-06 00:42 | 23.41606 | 113.31673 | 1135 ft | 189 kts | 19° |
| 2026-05-06 00:43 | 23.42916 | 113.32062 | 1677 ft | 202 kts | 17° |
| 2026-05-06 00:43 | 23.44317 | 113.32462 | 2126 ft | 219 kts | 17° |
| 2026-05-06 00:43 | 23.45875 | 113.32923 | 2587 ft | 238 kts | 17° |
| 2026-05-06 00:43 | 23.47560 | 113.33424 | 3150 ft | 255 kts | 17° |
| 2026-05-06 00:44 | 23.49314 | 113.33946 | 3732 ft | 270 kts | 16° |
| 2026-05-06 00:44 | 23.51152 | 113.34493 | 4545 ft | 276 kts | 15° |
| 2026-05-06 00:44 | 23.53015 | 113.35047 | 5333 ft | 282 kts | 15° |
| 2026-05-06 00:44 | 23.54930 | 113.35617 | 6143 ft | 286 kts | 14° |
| 2026-05-06 00:45 | 23.56895 | 113.36083 | 6986 ft | 288 kts | 9° |
| 2026-05-06 00:45 | 23.58895 | 113.36464 | 7836 ft | 290 kts | 8° |
| 2026-05-06 00:45 | 23.60900 | 113.36840 | 8651 ft | 293 kts | 8° |
| 2026-05-06 00:45 | 23.62902 | 113.37219 | 9431 ft | 295 kts | 7° |
| 2026-05-06 00:46 | 23.64938 | 113.37608 | 10210 ft | 299 kts | 7° |
| 2026-05-06 00:46 | 23.67067 | 113.38013 | 10710 ft | 314 kts | 7° |
| 2026-05-06 00:46 | 23.69307 | 113.38440 | 11163 ft | 330 kts | 7° |
| 2026-05-06 00:46 | 23.71631 | 113.38884 | 11627 ft | 345 kts | 8° |
| 2026-05-06 00:47 | 23.74053 | 113.39348 | 12089 ft | 360 kts | 8° |
| 2026-05-06 00:47 | 23.76553 | 113.39828 | 12560 ft | 374 kts | 8° |
| 2026-05-06 00:47 | 23.79213 | 113.40338 | 13042 ft | 388 kts | 8° |
| 2026-05-06 00:47 | 23.81964 | 113.40866 | 13631 ft | 398 kts | 8° |
| 2026-05-06 00:48 | 23.84693 | 113.41391 | 14369 ft | 403 kts | 8° |
| 2026-05-06 00:48 | 23.87466 | 113.41924 | 15111 ft | 407 kts | 8° |
| 2026-05-06 00:48 | 23.90307 | 113.42469 | 15852 ft | 411 kts | 8° |
| 2026-05-06 00:48 | 23.93188 | 113.43022 | 16566 ft | 416 kts | 8° |
| 2026-05-06 00:49 | 23.96061 | 113.43574 | 17229 ft | 420 kts | 8° |
| 2026-05-06 00:49 | 23.98964 | 113.44132 | 17893 ft | 425 kts | 8° |
| 2026-05-06 00:49 | 24.01898 | 113.44695 | 18550 ft | 429 kts | 8° |
| 2026-05-06 00:49 | 24.04831 | 113.45257 | 19183 ft | 433 kts | 8° |
| 2026-05-06 00:50 | 24.07915 | 113.45546 | 19778 ft | 436 kts | 358° |
| 2026-05-06 00:50 | 24.10956 | 113.45306 | 20372 ft | 439 kts | 352° |
| 2026-05-06 00:50 | 24.13995 | 113.44896 | 21009 ft | 441 kts | 351° |
| 2026-05-06 00:50 | 24.17069 | 113.44473 | 21627 ft | 445 kts | 351° |
| 2026-05-06 00:51 | 24.20149 | 113.44051 | 22210 ft | 449 kts | 352° |
| 2026-05-06 00:51 | 24.23344 | 113.43615 | 22803 ft | 452 kts | 352° |
| 2026-05-06 00:51 | 24.26508 | 113.43185 | 23398 ft | 455 kts | 352° |
| 2026-05-06 00:51 | 24.29635 | 113.42761 | 23991 ft | 458 kts | 351° |
| 2026-05-06 00:52 | 24.32806 | 113.42332 | 24561 ft | 461 kts | 351° |
| 2026-05-06 00:52 | 24.36057 | 113.42094 | 25147 ft | 465 kts | 358° |
| 2026-05-06 00:52 | 24.39305 | 113.42153 | 25734 ft | 468 kts | 360° |
| 2026-05-06 00:52 | 24.42654 | 113.42245 | 26309 ft | 472 kts | 359° |
| 2026-05-06 00:53 | 24.45940 | 113.42339 | 26871 ft | 475 kts | 359° |
| 2026-05-06 00:53 | 24.49269 | 113.42436 | 27419 ft | 479 kts | 359° |
| 2026-05-06 00:53 | 24.52607 | 113.42532 | 27961 ft | 482 kts | 359° |
| 2026-05-06 00:53 | 24.56059 | 113.42632 | 28511 ft | 486 kts | 359° |
| 2026-05-06 00:54 | 24.59451 | 113.42728 | 29057 ft | 489 kts | 359° |
| 2026-05-06 00:54 | 24.62887 | 113.42827 | 29666 ft | 491 kts | 359° |
| 2026-05-06 00:54 | 24.66264 | 113.42924 | 30450 ft | 489 kts | 358° |
| 2026-05-06 00:54 | 24.69668 | 113.43022 | 31365 ft | 483 kts | 358° |
| 2026-05-06 00:55 | 24.73011 | 113.43117 | 32219 ft | 478 kts | 358° |
| 2026-05-06 00:55 | 24.76299 | 113.43211 | 32927 ft | 476 kts | 357° |
| 2026-05-06 00:55 | 24.79622 | 113.43305 | 33608 ft | 473 kts | 357° |
| 2026-05-06 00:55 | 24.82896 | 113.43398 | 34313 ft | 470 kts | 357° |
| 2026-05-06 00:56 | 24.86157 | 113.43491 | 35059 ft | 465 kts | 357° |
| 2026-05-06 00:56 | 24.89385 | 113.43583 | 35768 ft | 461 kts | 356° |
| 2026-05-06 00:56 | 24.92576 | 113.43673 | 36387 ft | 458 kts | 356° |
| 2026-05-06 00:56 | 24.95760 | 113.43763 | 36875 ft | 457 kts | 356° |
| 2026-05-06 00:57 | 24.98923 | 113.43851 | 37107 ft | 459 kts | 356° |
| 2026-05-06 00:57 | 25.05334 | 113.44034 | 37113 ft | 457 kts | 356° |
| 2026-05-06 00:58 | 25.11673 | 113.44214 | 37124 ft | 456 kts | 356° |
| 2026-05-06 00:58 | 25.18055 | 113.44395 | 37123 ft | 456 kts | 356° |
| 2026-05-06 00:59 | 25.24458 | 113.44579 | 37131 ft | 457 kts | 356° |
| 2026-05-06 00:59 | 25.30851 | 113.44761 | 37130 ft | 458 kts | 356° |
| 2026-05-06 01:00 | 25.37229 | 113.44945 | 37131 ft | 457 kts | 356° |
| 2026-05-06 01:00 | 25.43623 | 113.45129 | 37136 ft | 457 kts | 356° |
| 2026-05-06 01:01 | 25.50017 | 113.45312 | 37135 ft | 457 kts | 356° |
| 2026-05-06 01:01 | 25.56398 | 113.45496 | 37130 ft | 456 kts | 356° |
| 2026-05-06 01:02 | 25.62799 | 113.45680 | 37136 ft | 457 kts | 356° |
| 2026-05-06 01:02 | 25.69158 | 113.45863 | 37137 ft | 458 kts | 356° |
| 2026-05-06 01:03 | 25.75527 | 113.46048 | 37130 ft | 458 kts | 356° |
| 2026-05-06 01:03 | 25.81927 | 113.46233 | 37110 ft | 458 kts | 356° |
| 2026-05-06 01:04 | 25.88303 | 113.46401 | 37100 ft | 456 kts | 354° |
| 2026-05-06 01:04 | 25.94712 | 113.46142 | 37098 ft | 456 kts | 353° |
| 2026-05-06 01:05 | 26.01053 | 113.45868 | 37082 ft | 454 kts | 353° |
| 2026-05-06 01:05 | 26.07432 | 113.45606 | 37086 ft | 457 kts | 353° |
| 2026-05-06 01:06 | 26.13890 | 113.45351 | 37084 ft | 454 kts | 353° |
| 2026-05-06 01:06 | 26.20233 | 113.45104 | 37091 ft | 456 kts | 353° |
| 2026-05-06 01:07 | 26.26573 | 113.44858 | 37091 ft | 455 kts | 353° |
| 2026-05-06 01:07 | 26.32932 | 113.44613 | 37082 ft | 455 kts | 353° |
| 2026-05-06 01:08 | 26.39296 | 113.44367 | 37080 ft | 455 kts | 353° |
| 2026-05-06 01:08 | 26.45630 | 113.44124 | 37072 ft | 455 kts | 353° |
| 2026-05-06 01:09 | 26.51968 | 113.43879 | 37053 ft | 456 kts | 353° |
| 2026-05-06 01:09 | 26.58325 | 113.43636 | 37061 ft | 455 kts | 353° |
| 2026-05-06 01:10 | 26.64646 | 113.43393 | 37048 ft | 456 kts | 353° |
| 2026-05-06 01:10 | 26.71002 | 113.43150 | 37054 ft | 456 kts | 353° |
| 2026-05-06 01:11 | 26.77346 | 113.42905 | 37042 ft | 456 kts | 353° |
| 2026-05-06 01:11 | 26.83703 | 113.42661 | 37045 ft | 455 kts | 353° |
| 2026-05-06 01:12 | 26.90021 | 113.42418 | 37049 ft | 456 kts | 353° |
| 2026-05-06 01:12 | 26.96352 | 113.42174 | 37063 ft | 455 kts | 353° |
| 2026-05-06 01:13 | 27.02707 | 113.41929 | 37053 ft | 454 kts | 353° |
| 2026-05-06 01:13 | 27.09020 | 113.41685 | 37048 ft | 455 kts | 353° |
| 2026-05-06 01:14 | 27.18577 | 113.41315 | 37043 ft | 455 kts | 353° |
| 2026-05-06 01:14 | 27.24919 | 113.41069 | 37043 ft | 455 kts | 353° |
| 2026-05-06 01:15 | 27.31258 | 113.40823 | 37041 ft | 455 kts | 353° |
| 2026-05-06 01:15 | 27.37668 | 113.40783 | 37040 ft | 458 kts | 356° |
| 2026-05-06 01:16 | 27.44042 | 113.40943 | 37030 ft | 458 kts | 356° |
| 2026-05-06 01:16 | 27.50486 | 113.41090 | 37025 ft | 457 kts | 356° |